Kirwin, Kansas
Current Conditions -  °F | °C
As of 4:53 AM on Tuesday 21 Oct 2014 (Local Time) from KHLC Reporting Station
Clear Clear  
Wind Chill:   Ceiling: Unl
Heat Index:   Visibility: 10mi
Dew Point:   Wind: 3mph
Humidity: 85%   Direction: 300°WNW
Pressure: 30.08"   Gusts: NA
Location:  39.67°N, 99.12°W
Report Text: KHLC 210953Z AUTO 30003KT 10SM CLR 06/03 A3008 RMK AO2 SLP178 T00560033
Loading
Personal Weather Stations






























Interactive Weather Map
Tropical Storm Tracking
New forecast layout! Learn more

10-Day Weather Forecast

Advertisements
Track Severe Weather on mobile